Piney, Arkansas
Current Conditions -  °F | °C
As of 10:53 PM on Friday 21 Nov 2014 (Local Time) from KHOT Reporting Station
Haze Haze  
Wind Chill: 50°   Ceiling: 4700
Heat Index: 50°   Visibility: 3mi
Dew Point: 49°   Wind: 5mph
Humidity: 96%   Direction: 80°E
Pressure: 30.23"   Gusts: NA
Location:  34.5331°N, 93.0035°W
Report Text: KHOT 220453Z AUTO 08004KT 3SM BR FEW003 BKN047 OVC070 10/09 A3023 RMK AO2 SLP237 T01000094
Loading
Personal Weather Stations






























Interactive Weather Map New forecast layout! Learn more

10-Day Weather Forecast

Advertisements
Track Severe Weather on mobile